Time;durP1;ratioP1;P1;durP2;ratioP2;P2;SDS_P1;SDS_P2;PMS_P1;PMS_P2;Temp;Humidity;BMP_temperature;BMP_pressure;BME280_temperature;BME280_humidity;BME280_pressure;Samples;Min_cycle;Max_cycle;Signal;HPM_P1;HPM_P2
2021/09/08 00:00:22;;;;;;;15.17;13.77;;;;;;;19.05;76.97;96682.44;5060042;28;20660;-67
2021/09/08 00:02:47;;;;;;;13.83;12.47;;;;;;;19.08;76.83;96685.38;5074067;28;20173;-68
2021/09/08 00:05:13;;;;;;;13.03;11.83;;;;;;;19.11;76.84;96681.38;5073799;28;20233;-71
2021/09/08 00:07:38;;;;;;;14.00;12.77;;;;;;;19.08;76.52;96681.91;5073881;28;20695;-68
2021/09/08 00:10:05;;;;;;;14.27;12.87;;;;;;;19.00;77.12;96685.94;5074170;28;20165;-67
2021/09/08 00:12:31;;;;;;;14.43;13.07;;;;;;;19.01;77.39;96676.06;5074269;28;20593;-68
2021/09/08 00:14:56;;;;;;;14.03;12.83;;;;;;;18.99;77.25;96679.00;5073016;28;20437;-68
2021/09/08 00:17:22;;;;;;;14.33;12.00;;;;;;;19.04;76.90;96678.19;5073135;28;20178;-67
2021/09/08 00:19:47;;;;;;;13.67;12.27;;;;;;;18.97;76.98;96673.13;5072813;28;20193;-68
2021/09/08 00:22:13;;;;;;;14.70;13.20;;;;;;;18.92;77.22;96667.84;5061816;28;20167;-68
2021/09/08 00:24:38;;;;;;;14.40;12.97;;;;;;;18.92;77.23;96662.50;5053404;28;20195;-71
2021/09/08 00:27:13;;;;;;;13.63;12.43;;;;;;;18.91;77.32;96660.94;5090704;27;20901;-69
2021/09/08 00:29:39;;;;;;;14.53;13.07;;;;;;;18.88;77.30;96658.00;5090941;28;20418;-72
2021/09/08 00:32:04;;;;;;;16.80;12.50;;;;;;;18.89;77.58;96655.06;5090803;28;20170;-72
2021/09/08 00:34:31;;;;;;;14.67;13.27;;;;;;;18.86;77.75;96655.59;5090250;28;20200;-69
2021/09/08 00:36:56;;;;;;;14.70;13.30;;;;;;;18.88;77.07;96652.69;5089975;28;20844;-69
2021/09/08 00:39:21;;;;;;;14.30;12.97;;;;;;;18.81;77.46;96646.81;5090611;28;20442;-72
2021/09/08 00:41:47;;;;;;;14.43;13.10;;;;;;;18.82;77.77;96646.56;5090518;28;20174;-72
2021/09/08 00:44:14;;;;;;;15.30;13.30;;;;;;;18.80;77.68;96642.56;5090082;28;20170;-68
2021/09/08 00:46:41;;;;;;;13.70;12.30;;;;;;;18.82;77.27;96643.91;5076751;28;20229;-72
2021/09/08 00:49:07;;;;;;;15.17;13.30;;;;;;;18.78;77.69;96647.38;5070072;28;20417;-72
2021/09/08 00:51:37;;;;;;;14.20;12.80;;;;;;;18.76;77.45;96644.97;5070280;28;20413;-72
2021/09/08 00:54:05;;;;;;;16.00;14.10;;;;;;;18.78;77.11;96644.69;5069766;28;20641;-69
2021/09/08 00:56:32;;;;;;;15.17;13.60;;;;;;;18.71;77.39;96647.66;5080427;28;20439;-68
2021/09/08 00:58:58;;;;;;;15.60;14.03;;;;;;;18.73;77.10;96645.53;5090344;28;20412;-72
2021/09/08 01:01:23;;;;;;;14.50;12.80;;;;;;;18.70;77.23;96638.06;5088775;28;20512;-72
2021/09/08 01:03:49;;;;;;;15.10;13.60;;;;;;;18.71;77.32;96642.31;5089607;28;20315;-68
2021/09/08 01:06:15;;;;;;;14.73;13.23;;;;;;;18.64;77.65;96635.69;5089865;28;20721;-72
2021/09/08 01:08:41;;;;;;;14.87;13.47;;;;;;;18.65;77.50;96640.72;5090192;28;20177;-72
2021/09/08 01:11:07;;;;;;;16.20;14.60;;;;;;;18.67;77.34;96638.59;5089286;28;20510;-72
2021/09/08 01:13:33;;;;;;;15.70;14.00;;;;;;;18.63;77.73;96637.53;5075755;28;20506;-69
2021/09/08 01:16:05;;;;;;;15.13;13.60;;;;;;;18.62;77.23;96640.47;5069767;28;20221;-68
2021/09/08 01:18:31;;;;;;;15.53;14.03;;;;;;;18.60;77.59;96635.44;5070506;28;20224;-68
2021/09/08 01:20:56;;;;;;;16.70;15.10;;;;;;;18.53;77.36;96632.25;5069700;28;20405;-68
2021/09/08 01:23:22;;;;;;;15.80;13.60;;;;;;;18.47;77.90;96635.97;5069418;28;20417;-68
2021/09/08 01:25:47;;;;;;;16.87;12.00;;;;;;;18.47;78.36;96625.31;5069336;28;20202;-72
2021/09/08 01:28:13;;;;;;;18.77;14.20;;;;;;;18.51;77.68;96628.25;5082040;28;20189;-72
2021/09/08 01:30:41;;;;;;;14.30;12.90;;;;;;;18.41;77.89;96632.53;5089850;28;20254;-72
2021/09/08 01:33:08;;;;;;;13.77;12.33;;;;;;;18.42;77.84;96630.66;5089800;28;20174;-68
2021/09/08 01:35:34;;;;;;;12.90;11.70;;;;;;;18.38;77.80;96632.22;5090031;28;20421;-72
2021/09/08 01:37:59;;;;;;;13.43;12.27;;;;;;;18.37;77.68;96627.97;5079605;28;20409;-72
2021/09/08 01:40:24;;;;;;;12.83;11.63;;;;;;;18.35;77.68;96625.56;5076130;28;20175;-68
2021/09/08 01:42:50;;;;;;;13.33;12.03;;;;;;;18.35;77.59;96628.22;5064090;28;20175;-69
2021/09/08 01:45:16;;;;;;;14.13;12.70;;;;;;;18.31;77.83;96626.38;5055917;28;20218;-72
2021/09/08 01:47:42;;;;;;;13.73;12.43;;;;;;;18.32;77.11;96619.97;5055953;28;20207;-72
2021/09/08 01:50:09;;;;;;;14.10;12.20;;;;;;;18.26;77.50;96621.06;5055915;28;20413;-68
2021/09/08 01:52:37;;;;;;;13.47;12.07;;;;;;;18.22;77.86;96614.69;5056007;28;20398;-72
2021/09/08 01:55:04;;;;;;;13.20;11.90;;;;;;;18.22;77.73;96614.69;5055788;28;20487;-68
2021/09/08 01:57:29;;;;;;;13.73;12.33;;;;;;;18.13;78.08;96603.78;5066153;28;20461;-66
2021/09/08 01:59:54;;;;;;;13.03;11.83;;;;;;;18.15;78.00;96612.28;5062605;28;20456;-67
2021/09/08 02:02:20;;;;;;;14.03;12.47;;;;;;;18.12;78.03;96604.03;5063879;28;20182;-66
2021/09/08 02:04:45;;;;;;;13.57;12.30;;;;;;;18.11;78.32;96613.09;5075166;28;20190;-66
2021/09/08 02:07:10;;;;;;;13.30;11.60;;;;;;;18.10;77.93;96614.94;5075653;28;20167;-69
2021/09/08 02:09:36;;;;;;;13.00;11.70;;;;;;;18.09;78.17;96620.53;5075677;28;20690;-69
2021/09/08 02:12:01;;;;;;;13.03;11.83;;;;;;;18.10;77.70;96619.50;5075794;28;20175;-69
2021/09/08 02:14:27;;;;;;;12.50;11.40;;;;;;;18.03;78.30;96613.59;5074272;28;20681;-69
2021/09/08 02:16:52;;;;;;;13.53;12.20;;;;;;;18.06;78.22;96611.22;5059443;28;20227;-69
2021/09/08 02:19:17;;;;;;;13.27;11.97;;;;;;;18.05;78.29;96606.97;5055598;28;20221;-69
2021/09/08 02:21:43;;;;;;;13.50;12.30;;;;;;;18.06;78.03;96615.75;5055589;28;20171;-66
2021/09/08 02:24:08;;;;;;;14.17;12.70;;;;;;;18.05;78.09;96612.28;5054908;28;20186;-69
2021/09/08 02:26:34;;;;;;;14.90;13.23;;;;;;;18.04;78.42;96602.72;5055016;28;20563;-68
2021/09/08 02:28:59;;;;;;;13.87;12.57;;;;;;;18.03;78.15;96601.13;5055375;28;20176;-66
2021/09/08 02:31:25;;;;;;;14.47;12.83;;;;;;;18.01;78.30;96597.91;5068674;28;20629;-66
2021/09/08 02:33:50;;;;;;;14.30;12.80;;;;;;;17.99;78.70;96601.94;5078797;28;20200;-69
2021/09/08 02:36:17;;;;;;;15.70;14.17;;;;;;;17.94;78.86;96597.41;5095812;28;20201;-69
2021/09/08 02:38:42;;;;;;;14.80;13.50;;;;;;;17.96;78.83;96594.47;5095330;28;20166;-69
2021/09/08 02:41:08;;;;;;;15.30;13.67;;;;;;;17.97;78.77;96598.75;5088216;28;20458;-67
2021/09/08 02:43:35;;;;;;;14.60;13.10;;;;;;;17.94;78.75;96589.41;5056019;28;20206;-72
2021/09/08 02:46:03;;;;;;;14.73;13.33;;;;;;;17.95;78.88;96590.22;5070023;28;20195;-71
2021/09/08 02:48:30;;;;;;;15.87;14.27;;;;;;;17.99;78.61;96592.06;5070619;28;20517;-72
2021/09/08 02:50:55;;;;;;;15.83;14.30;;;;;;;17.94;78.51;96594.72;5054640;28;20479;-68
2021/09/08 02:53:21;;;;;;;16.53;14.83;;;;;;;17.87;78.65;96590.75;5054402;28;20409;-72
2021/09/08 02:55:46;;;;;;;16.00;14.40;;;;;;;17.83;78.94;96579.84;5054573;28;20266;-72
2021/09/08 02:58:11;;;;;;;15.67;13.50;;;;;;;17.85;78.89;96588.34;5054824;28;20178;-69
2021/09/08 03:00:37;;;;;;;16.73;15.03;;;;;;;17.91;78.65;96583.84;5054548;28;20171;-69
2021/09/08 03:03:02;;;;;;;17.27;15.47;;;;;;;17.87;78.61;96583.56;5067493;28;20207;-72
2021/09/08 03:05:28;;;;;;;14.50;13.20;;;;;;;17.79;78.65;96572.69;5074550;28;20683;-72
2021/09/08 03:07:53;;;;;;;16.03;13.77;;;;;;;17.78;78.75;96576.38;5074599;28;20224;-68
2021/09/08 03:10:18;;;;;;;13.80;12.43;;;;;;;17.83;78.43;96576.38;5074510;28;20534;-72
2021/09/08 03:12:44;;;;;;;16.53;14.93;;;;;;;17.81;78.57;96571.34;5074199;28;20179;-71
2021/09/08 03:15:10;;;;;;;17.83;14.73;;;;;;;17.80;78.47;96568.94;5074505;28;20198;-68
2021/09/08 03:17:35;;;;;;;15.07;13.47;;;;;;;17.80;78.56;96566.28;5074270;28;20532;-71
2021/09/08 03:20:01;;;;;;;15.03;13.63;;;;;;;17.74;78.47;96565.47;5056860;28;20675;-71
2021/09/08 03:22:26;;;;;;;15.27;13.70;;;;;;;17.74;78.78;96567.34;5054246;28;20589;-72
2021/09/08 03:24:52;;;;;;;14.57;13.13;;;;;;;17.71;78.55;96568.69;5052344;28;20199;-71
2021/09/08 03:27:17;;;;;;;16.00;14.50;;;;;;;17.65;79.23;96569.72;5054358;28;20171;-68
2021/09/08 03:29:42;;;;;;;16.40;14.77;;;;;;;17.65;79.15;96563.59;5054195;28;20184;-66
2021/09/08 03:32:08;;;;;;;16.37;14.77;;;;;;;17.70;79.16;96560.97;5054087;28;20175;-69
2021/09/08 03:34:33;;;;;;;15.50;13.80;;;;;;;17.70;79.13;96555.66;5054597;28;20274;-69
2021/09/08 03:36:58;;;;;;;15.83;14.23;;;;;;;17.65;79.34;96556.44;5073901;28;20189;-66
2021/09/08 03:39:24;;;;;;;15.47;13.90;;;;;;;17.65;79.00;96558.28;5074073;28;20212;-66
2021/09/08 03:41:49;;;;;;;15.90;14.30;;;;;;;17.67;79.00;96553.50;5074004;28;20174;-66
2021/09/08 03:44:15;;;;;;;15.83;14.33;;;;;;;17.65;78.89;96558.28;5073294;28;20629;-66
2021/09/08 03:46:40;;;;;;;15.63;14.23;;;;;;;17.65;78.72;96550.31;5061800;28;20613;-69
2021/09/08 03:49:05;;;;;;;16.60;14.90;;;;;;;17.63;78.49;96549.81;5053727;28;20175;-66
2021/09/08 03:51:31;;;;;;;16.43;14.73;;;;;;;17.63;78.77;96547.16;5054043;28;20176;-66
2021/09/08 03:53:59;;;;;;;16.87;15.23;;;;;;;17.59;78.94;96546.09;5061455;28;20582;-69
2021/09/08 03:56:25;;;;;;;16.60;14.90;;;;;;;17.57;78.91;96543.69;5073712;28;20260;-69
2021/09/08 03:58:52;;;;;;;15.30;13.80;;;;;;;17.56;78.76;96544.75;5073599;28;20501;-66
2021/09/08 04:01:17;;;;;;;15.40;13.80;;;;;;;17.50;79.21;96548.47;5073436;28;20409;-66
2021/09/08 04:03:43;;;;;;;15.87;14.37;;;;;;;17.54;78.83;96543.44;5073147;28;20456;-66
2021/09/08 04:06:08;;;;;;;15.90;14.20;;;;;;;17.53;78.83;96541.81;5073428;28;20202;-69
2021/09/08 04:08:33;;;;;;;16.53;14.90;;;;;;;17.51;78.63;96541.28;5072948;28;20178;-71
2021/09/08 04:10:59;;;;;;;16.20;14.50;;;;;;;17.45;78.81;96535.94;5073590;28;20229;-72
2021/09/08 04:13:24;;;;;;;15.93;14.40;;;;;;;17.48;78.66;96537.31;5073174;28;20202;-72
2021/09/08 04:15:49;;;;;;;17.37;15.40;;;;;;;17.44;78.78;96537.00;5073218;28;20212;-69
2021/09/08 04:18:15;;;;;;;16.13;14.53;;;;;;;17.38;79.29;96532.75;5073345;28;20175;-66
2021/09/08 04:20:40;;;;;;;17.67;15.97;;;;;;;17.42;79.14;96535.66;5073407;28;20173;-70
2021/09/08 04:23:05;;;;;;;18.87;16.87;;;;;;;17.39;79.47;96530.91;5067467;28;20258;-66
2021/09/08 04:25:31;;;;;;;18.17;16.30;;;;;;;17.40;79.19;96532.47;5062581;28;20259;-69
2021/09/08 04:27:56;;;;;;;17.97;16.07;;;;;;;17.40;79.28;96532.47;5053264;28;20274;-66
2021/09/08 04:30:21;;;;;;;17.40;15.70;;;;;;;17.40;79.07;96532.47;5053397;28;20202;-69
2021/09/08 04:32:47;;;;;;;16.80;15.10;;;;;;;17.39;78.76;96525.56;5053021;28;20195;-66
2021/09/08 04:35:12;;;;;;;17.17;15.50;;;;;;;17.40;78.59;96521.84;5052971;28;20274;-66
2021/09/08 04:37:38;;;;;;;17.57;15.83;;;;;;;17.32;79.05;96531.13;5053125;28;20529;-66
2021/09/08 04:40:05;;;;;;;18.07;16.17;;;;;;;17.33;78.81;96523.97;5071224;28;20174;-70
2021/09/08 04:42:30;;;;;;;17.50;15.60;;;;;;;17.31;78.66;96526.91;5054864;28;20182;-66
2021/09/08 04:44:56;;;;;;;19.90;16.00;;;;;;;17.31;78.79;96526.91;5052482;28;20775;-69
2021/09/08 04:47:21;;;;;;;16.70;15.00;;;;;;;17.29;78.37;96530.84;5053339;28;20199;-70
2021/09/08 04:49:47;;;;;;;16.90;15.07;;;;;;;17.26;78.99;96518.91;5053030;28;20168;-66
2021/09/08 04:52:12;;;;;;;17.03;15.33;;;;;;;17.29;78.81;96528.22;5053228;28;20696;-66
2021/09/08 04:54:37;;;;;;;18.80;17.00;;;;;;;17.25;79.10;96527.13;5052701;28;20580;-66
2021/09/08 04:57:03;;;;;;;19.50;16.73;;;;;;;17.23;79.05;96527.41;5068598;28;20526;-67
2021/09/08 04:59:28;;;;;;;18.30;16.40;;;;;;;17.24;79.20;96525.53;5073165;28;20200;-72
2021/09/08 05:01:54;;;;;;;18.17;16.40;;;;;;;17.20;79.30;96524.47;5072987;28;20212;-69
2021/09/08 05:04:19;;;;;;;17.47;15.57;;;;;;;17.17;79.67;96527.66;5072685;28;20517;-68
2021/09/08 05:06:45;;;;;;;17.93;16.17;;;;;;;17.19;79.80;96526.31;5073016;28;20303;-72
2021/09/08 05:09:10;;;;;;;17.93;16.07;;;;;;;17.18;79.69;96530.06;5072860;28;20175;-72
2021/09/08 05:11:35;;;;;;;19.37;17.33;;;;;;;17.18;79.50;96532.72;5058662;28;20172;-69
2021/09/08 05:14:01;;;;;;;18.10;16.20;;;;;;;17.18;80.01;96527.41;5056328;28;20199;-72
2021/09/08 05:16:26;;;;;;;18.90;17.00;;;;;;;17.18;79.75;96530.06;5056716;28;20183;-72
2021/09/08 05:18:51;;;;;;;17.50;15.80;;;;;;;17.15;79.99;96535.91;5055252;28;20622;-72
2021/09/08 05:21:17;;;;;;;18.50;16.63;;;;;;;17.16;80.03;96534.81;5056370;28;20170;-69
2021/09/08 05:23:42;;;;;;;16.60;15.00;;;;;;;17.19;79.88;96528.19;5056185;28;20176;-68
2021/09/08 05:26:08;;;;;;;18.23;16.53;;;;;;;17.17;80.20;96527.66;5056478;28;20195;-69
2021/09/08 05:28:33;;;;;;;18.13;16.33;;;;;;;17.17;80.20;96531.13;5069837;28;20189;-69
2021/09/08 05:30:59;;;;;;;16.97;14.97;;;;;;;17.19;79.96;96528.19;5058337;28;20179;-72
2021/09/08 05:33:24;;;;;;;19.63;16.43;;;;;;;17.20;80.25;96535.09;5061624;28;20166;-72
2021/09/08 05:35:50;;;;;;;18.47;15.80;;;;;;;17.18;80.21;96522.09;5074970;28;20179;-69
2021/09/08 05:38:15;;;;;;;18.43;16.50;;;;;;;17.23;80.28;96538.03;5076034;28;20202;-69
2021/09/08 05:40:40;;;;;;;16.93;15.07;;;;;;;17.22;80.43;96525.00;5076285;28;20163;-69
2021/09/08 05:43:06;;;;;;;17.30;15.60;;;;;;;17.23;80.54;96523.94;5075868;28;20175;-69
2021/09/08 05:45:31;;;;;;;18.63;16.07;;;;;;;17.29;80.57;96525.56;5075857;28;20197;-69
2021/09/08 05:47:57;;;;;;;16.00;14.30;;;;;;;17.24;80.79;96528.19;5075340;28;20171;-72
2021/09/08 05:50:22;;;;;;;18.10;15.87;;;;;;;17.26;81.24;96528.75;5076109;28;20190;-72
2021/09/08 05:52:48;;;;;;;17.30;15.50;;;;;;;17.33;80.89;96518.66;5075669;28;20553;-72
2021/09/08 05:55:13;;;;;;;18.50;16.40;;;;;;;17.31;81.12;96526.91;5075813;28;20183;-68
2021/09/08 05:57:39;;;;;;;19.00;17.10;;;;;;;17.34;81.52;96523.69;5075986;28;20661;-73
2021/09/08 06:00:05;;;;;;;17.87;16.07;;;;;;;17.36;81.77;96534.88;5071882;28;20222;-69
2021/09/08 06:02:30;;;;;;;18.83;16.97;;;;;;;17.35;82.15;96529.81;5055541;28;20205;-68
2021/09/08 06:04:56;;;;;;;18.27;15.43;;;;;;;17.37;82.36;96525.81;5057647;28;20446;-73
2021/09/08 06:07:21;;;;;;;19.00;17.00;;;;;;;17.46;82.33;96531.44;5055816;28;20168;-69
2021/09/08 06:09:46;;;;;;;21.10;17.87;;;;;;;17.51;82.69;96528.00;5055758;28;20221;-69
2021/09/08 06:12:12;;;;;;;20.30;15.50;;;;;;;17.59;82.36;96522.97;5055606;28;20164;-72
2021/09/08 06:14:37;;;;;;;18.40;16.60;;;;;;;17.61;82.39;96538.66;5055041;28;20187;-72
2021/09/08 06:17:03;;;;;;;18.27;16.47;;;;;;;17.64;82.29;96528.28;5055835;28;20204;-72
2021/09/08 06:19:29;;;;;;;17.90;16.00;;;;;;;17.67;82.49;96525.09;5069109;28;20178;-72
2021/09/08 06:21:54;;;;;;;17.40;15.40;;;;;;;17.72;81.87;96522.41;5075332;28;20397;-72
2021/09/08 06:24:19;;;;;;;17.77;15.97;;;;;;;17.78;82.24;96528.53;5074770;28;20252;-72
2021/09/08 06:26:45;;;;;;;18.30;16.43;;;;;;;17.80;82.38;96521.91;5075151;28;20275;-68
2021/09/08 06:29:10;;;;;;;17.20;15.40;;;;;;;17.84;82.49;96522.16;5075423;28;20171;-69
2021/09/08 06:31:36;;;;;;;18.00;16.20;;;;;;;17.85;82.77;96524.53;5075355;28;20163;-72
2021/09/08 06:34:01;;;;;;;16.87;15.03;;;;;;;17.94;82.70;96522.13;5062646;28;20241;-72
2021/09/08 06:36:27;;;;;;;18.90;16.30;;;;;;;17.97;82.44;96522.41;5057309;28;20195;-72
2021/09/08 06:38:52;;;;;;;17.87;15.73;;;;;;;18.01;82.82;96520.03;5063303;28;20261;-67
2021/09/08 06:41:17;;;;;;;17.90;16.07;;;;;;;18.06;82.64;96525.31;5075162;28;20178;-75
2021/09/08 06:43:43;;;;;;;15.83;14.37;;;;;;;18.11;82.40;96523.47;5074591;28;20196;-68
2021/09/08 06:46:09;;;;;;;16.60;14.90;;;;;;;18.18;82.57;96521.31;5074800;28;20201;-68
2021/09/08 06:48:34;;;;;;;15.50;13.83;;;;;;;18.20;81.98;96513.06;5074953;28;20171;-68
2021/09/08 06:51:00;;;;;;;13.30;11.90;;;;;;;18.26;81.90;96512.75;5074231;28;20452;-76
2021/09/08 06:53:26;;;;;;;13.40;12.00;;;;;;;18.32;81.90;96508.22;5074503;28;20163;-76
2021/09/08 06:55:51;;;;;;;14.50;12.97;;;;;;;18.39;81.27;96512.22;5074475;28;20193;-69
2021/09/08 06:58:16;;;;;;;13.80;12.47;;;;;;;18.44;81.19;96504.22;5074657;28;20174;-68
2021/09/08 07:00:42;;;;;;;12.90;11.60;;;;;;;18.48;81.40;96511.69;5074739;28;20637;-75
2021/09/08 07:03:07;;;;;;;14.57;12.00;;;;;;;18.46;80.02;96503.97;5074205;28;20684;-68
2021/09/08 07:05:34;;;;;;;14.63;11.40;;;;;;;18.54;79.79;96502.59;5059021;28;20206;-75
2021/09/08 07:08:01;;;;;;;13.73;10.80;;;;;;;18.64;79.74;96503.38;5054935;28;20179;-74
2021/09/08 07:10:27;;;;;;;16.10;11.67;;;;;;;18.67;79.84;96502.03;5054526;28;20468;-69
2021/09/08 07:12:53;;;;;;;13.80;10.43;;;;;;;18.71;79.63;96506.53;5059976;28;20417;-73
2021/09/08 07:15:18;;;;;;;11.90;10.63;;;;;;;18.77;79.47;96500.09;5074299;28;20582;-65
2021/09/08 07:17:43;;;;;;;11.80;10.70;;;;;;;18.82;79.05;96500.09;5074315;28;20167;-72
2021/09/08 07:20:09;;;;;;;11.60;9.90;;;;;;;18.86;78.70;96493.13;5074419;28;20171;-73
2021/09/08 07:22:34;;;;;;;10.90;9.60;;;;;;;18.90;78.45;96494.19;5071119;28;20644;-71
2021/09/08 07:25:00;;;;;;;13.50;10.33;;;;;;;18.99;78.00;96491.75;5053675;28;20666;-73
2021/09/08 07:27:26;;;;;;;11.00;9.90;;;;;;;19.05;75.58;96487.97;5054080;28;20254;-65
2021/09/08 07:29:51;;;;;;;10.10;9.10;;;;;;;19.03;75.62;96498.13;5054057;28;20199;-65
2021/09/08 07:32:17;;;;;;;11.83;9.80;;;;;;;18.97;74.44;96497.34;5054129;28;20430;-64
2021/09/08 07:34:42;;;;;;;10.10;9.10;;;;;;;19.05;73.76;96495.97;5053815;28;20244;-64
2021/09/08 07:37:08;;;;;;;9.10;8.27;;;;;;;19.08;72.57;96496.22;5059285;28;20166;-64
2021/09/08 07:39:33;;;;;;;10.10;9.20;;;;;;;19.17;73.33;96483.09;5073910;28;20182;-73
2021/09/08 07:42:00;;;;;;;9.80;8.80;;;;;;;19.31;73.44;96490.22;5073856;28;20174;-73
2021/09/08 07:44:26;;;;;;;11.30;9.50;;;;;;;19.42;73.65;96490.97;5079246;28;20171;-65
2021/09/08 07:46:51;;;;;;;10.07;9.07;;;;;;;19.51;73.61;96483.97;5074863;28;20494;-73
2021/09/08 07:49:16;;;;;;;9.30;8.40;;;;;;;19.61;73.74;96488.41;5073731;28;20255;-65
2021/09/08 07:51:42;;;;;;;8.97;8.17;;;;;;;19.67;73.98;96482.78;5073210;28;20228;-72
2021/09/08 07:54:07;;;;;;;11.53;9.23;;;;;;;19.74;74.02;96485.09;5073274;28;20197;-71
2021/09/08 07:56:33;;;;;;;9.90;8.93;;;;;;;19.83;73.59;96496.75;5073511;28;20182;-64
2021/09/08 07:58:58;;;;;;;9.80;8.90;;;;;;;19.87;73.15;96482.59;5073604;28;20166;-71
2021/09/08 08:01:23;;;;;;;9.17;8.27;;;;;;;19.96;73.12;96486.25;5073693;28;20174;-75
2021/09/08 08:03:49;;;;;;;9.40;8.60;;;;;;;20.01;73.12;96478.19;5073186;28;20166;-74
2021/09/08 08:06:17;;;;;;;9.77;8.77;;;;;;;20.10;72.67;96476.50;5072736;28;20657;-74
2021/09/08 08:08:42;;;;;;;8.80;8.10;;;;;;;20.11;71.87;96478.06;5053588;28;20365;-67
2021/09/08 08:11:08;;;;;;;9.10;8.30;;;;;;;20.19;71.03;96472.16;5057675;28;20501;-74
2021/09/08 08:13:33;;;;;;;9.57;8.60;;;;;;;20.18;69.81;96473.22;5070730;28;20179;-71
2021/09/08 08:15:58;;;;;;;9.00;8.10;;;;;;;20.28;69.63;96472.31;5070020;28;20175;-71
2021/09/08 08:18:24;;;;;;;9.30;8.40;;;;;;;20.38;69.11;96473.00;5069899;28;20621;-68
2021/09/08 08:20:49;;;;;;;9.37;8.47;;;;;;;20.43;67.74;96480.16;5069820;28;20177;-70
2021/09/08 08:23:15;;;;;;;9.13;8.23;;;;;;;20.48;67.59;96474.75;5049691;28;20175;-70
2021/09/08 08:25:41;;;;;;;8.63;7.50;;;;;;;20.52;66.59;96472.31;5049006;28;20199;-65
2021/09/08 08:28:06;;;;;;;9.17;8.07;;;;;;;20.64;66.97;96467.34;5049774;28;20176;-65
2021/09/08 08:30:34;;;;;;;9.00;8.10;;;;;;;20.77;66.24;96467.47;5053878;28;20216;-65
2021/09/08 08:32:59;;;;;;;9.33;7.93;;;;;;;20.88;66.66;96468.91;5069567;28;20194;-66
2021/09/08 08:35:25;;;;;;;9.17;8.30;;;;;;;20.92;66.14;96469.94;5069733;28;20885;-64
2021/09/08 08:37:51;;;;;;;9.87;7.87;;;;;;;21.02;66.35;96475.16;5065631;28;20547;-61
2021/09/08 08:40:18;;;;;;;9.07;7.53;;;;;;;21.08;65.88;96465.19;5062098;28;20182;-67
2021/09/08 08:42:44;;;;;;;9.30;7.43;;;;;;;21.06;62.64;96470.84;5069328;28;20883;-64
2021/09/08 08:45:10;;;;;;;9.70;8.03;;;;;;;21.10;63.33;96469.19;5069552;28;20429;-59
2021/09/08 08:47:35;;;;;;;9.43;8.53;;;;;;;21.24;63.54;96472.72;5071398;28;20957;-67
2021/09/08 08:50:02;;;;;;;8.37;7.43;;;;;;;21.33;63.42;96467.50;5077453;28;20648;-68
2021/09/08 08:52:27;;;;;;;8.20;7.50;;;;;;;21.41;63.13;96464.94;5077013;28;20217;-60
2021/09/08 08:54:53;;;;;;;8.47;7.67;;;;;;;21.52;63.02;96473.63;5074741;28;20780;-68
2021/09/08 08:57:19;;;;;;;8.30;7.60;;;;;;;21.57;63.81;96462.84;5076979;28;20198;-67
2021/09/08 08:59:46;;;;;;;8.70;7.90;;;;;;;21.61;62.73;96469.19;5076909;28;20579;-68
2021/09/08 09:02:19;;;;;;;8.60;7.50;;;;;;;21.72;62.44;96464.47;5076979;28;20763;-60
2021/09/08 09:04:45;;;;;;;8.30;7.60;;;;;;;21.81;62.11;96462.75;5076522;28;20830;-60
2021/09/08 09:07:31;;;;;;;8.37;7.50;;;;;;;21.90;60.93;96459.09;5076837;28;20520;-67
2021/09/08 09:10:03;;;;;;;9.10;8.20;;;;;;;22.01;61.75;96462.38;5062225;28;20202;-60
2021/09/08 09:12:33;;;;;;;8.03;7.30;;;;;;;22.08;61.61;96460.09;5056893;28;20463;-60
2021/09/08 09:14:59;;;;;;;9.83;8.87;;;;;;;22.06;61.99;96457.72;5056288;28;20445;-61
2021/09/08 09:17:28;;;;;;;9.57;8.67;;;;;;;22.19;61.92;96456.94;5056543;28;20405;-60
2021/09/08 09:19:53;;;;;;;10.33;7.77;;;;;;;22.25;60.80;96452.28;5056502;28;20405;-61
2021/09/08 09:22:19;;;;;;;9.83;8.83;;;;;;;22.31;58.72;96448.41;5056549;28;20405;-60
2021/09/08 09:24:51;;;;;;;9.60;8.70;;;;;;;22.36;58.64;96445.63;5069985;28;20561;-59
2021/09/08 09:27:16;;;;;;;8.33;7.63;;;;;;;22.47;58.96;96436.31;5076503;28;20452;-61
2021/09/08 09:29:43;;;;;;;8.33;7.53;;;;;;;22.58;59.56;96431.56;5076560;28;20413;-68
2021/09/08 09:32:11;;;;;;;9.53;8.63;;;;;;;22.63;60.06;96437.59;5076424;28;20175;-59
2021/09/08 09:34:39;;;;;;;11.37;8.67;;;;;;;22.67;57.56;96430.56;5075820;28;20429;-60
2021/09/08 09:37:05;;;;;;;7.87;7.03;;;;;;;22.71;59.00;96425.41;5076240;28;20397;-68
2021/09/08 09:39:33;;;;;;;8.70;7.90;;;;;;;22.87;59.00;96432.00;5062333;28;20418;-68
2021/09/08 09:42:07;;;;;;;8.20;7.40;;;;;;;23.02;59.85;96426.31;5066047;28;20418;-61
2021/09/08 09:44:33;;;;;;;9.20;8.40;;;;;;;23.14;59.54;96427.38;5055634;28;20771;-60
2021/09/08 09:47:00;;;;;;;8.40;7.57;;;;;;;23.21;58.19;96421.56;5056166;28;20517;-60
2021/09/08 09:49:29;;;;;;;8.80;7.90;;;;;;;23.32;59.23;96421.06;5056020;28;20753;-61
2021/09/08 09:51:56;;;;;;;8.80;8.00;;;;;;;23.37;56.80;96420.94;5055972;28;20406;-60
2021/09/08 09:54:25;;;;;;;9.03;8.23;;;;;;;23.42;55.99;96420.84;5055639;28;20406;-61
2021/09/08 09:56:54;;;;;;;8.50;7.70;;;;;;;23.58;56.62;96421.25;5065483;28;20982;-61
2021/09/08 09:59:21;;;;;;;9.20;8.33;;;;;;;23.64;57.25;96425.41;5062676;28;20428;-68
2021/09/08 10:01:46;;;;;;;10.60;8.57;;;;;;;23.84;58.50;96414.16;5075935;28;20412;-66
2021/09/08 10:04:12;;;;;;;8.97;8.17;;;;;;;23.94;57.13;96419.22;5064577;28;20799;-74
2021/09/08 10:06:39;;;;;;;8.53;7.73;;;;;;;24.04;57.32;96410.16;5055511;28;20226;-76
2021/09/08 10:09:06;;;;;;;11.53;8.00;;;;;;;24.18;58.06;96403.59;5055647;28;20685;-67
2021/09/08 10:11:34;;;;;;;8.27;7.47;;;;;;;24.33;58.34;96397.00;5059465;28;20966;-67
2021/09/08 10:14:13;;;;;;;9.47;8.60;;;;;;;24.32;58.68;96398.06;5055155;28;20394;-72
2021/09/08 10:16:44;;;;;;;9.83;8.83;;;;;;;24.36;56.40;96394.47;5067115;28;20778;-71
2021/09/08 10:19:09;;;;;;;8.63;7.93;;;;;;;24.39;56.32;96382.28;5075686;28;20400;-68
2021/09/08 10:21:36;;;;;;;8.47;7.77;;;;;;;24.49;57.01;96382.00;5074875;28;20409;-59
2021/09/08 10:24:06;;;;;;;9.60;8.63;;;;;;;24.61;55.50;96384.06;5074984;28;20637;-60
2021/09/08 10:26:33;;;;;;;9.07;8.17;;;;;;;24.73;56.42;96376.22;5070155;28;20461;-61
2021/09/08 10:29:06;;;;;;;8.23;7.53;;;;;;;24.74;55.87;96377.78;5068179;28;20422;-66
2021/09/08 10:31:43;;;;;;;8.80;8.00;;;;;;;24.89;56.10;96367.38;5071740;28;20401;-67
2021/09/08 10:34:11;;;;;;;9.33;8.53;;;;;;;24.94;55.87;96366.44;5071327;28;20407;-61
2021/09/08 10:36:38;;;;;;;8.87;8.07;;;;;;;25.03;54.81;96359.94;5071077;28;20456;-69
2021/09/08 10:39:18;;;;;;;8.03;7.33;;;;;;;25.11;55.34;96361.81;5071560;28;21180;-66
2021/09/08 10:41:46;;;;;;;8.87;7.80;;;;;;;25.20;55.55;96362.59;5071275;28;20477;-65
2021/09/08 10:44:14;;;;;;;7.93;7.23;;;;;;;25.36;56.30;96354.84;5067512;28;20426;-60
2021/09/08 10:46:53;;;;;;;8.83;8.13;;;;;;;25.38;54.50;96352.66;5067566;28;20452;-60
2021/09/08 10:49:36;;;;;;;9.57;8.67;;;;;;;25.47;55.09;96353.44;5055008;28;20417;-68
2021/09/08 10:52:06;;;;;;;8.43;7.73;;;;;;;25.56;55.86;96348.00;5054887;28;20468;-68
2021/09/08 10:54:33;;;;;;;9.37;8.47;;;;;;;25.61;52.05;96351.31;5054444;28;20433;-60
2021/09/08 10:56:58;;;;;;;8.80;8.00;;;;;;;25.66;52.55;96347.66;5054821;28;20406;-68
2021/09/08 10:59:24;;;;;;;7.80;7.20;;;;;;;25.79;52.49;96352.84;5054646;28;20416;-68
2021/09/08 11:01:53;;;;;;;9.13;8.23;;;;;;;25.84;54.65;96349.97;5059703;28;20191;-68
2021/09/08 11:04:18;;;;;;;8.67;7.80;;;;;;;25.89;52.21;96355.19;5074256;28;20171;-68
2021/09/08 11:06:47;;;;;;;8.33;7.70;;;;;;;26.01;52.99;96352.59;5074296;28;20808;-60
2021/09/08 11:09:15;;;;;;;10.63;7.47;;;;;;;26.16;53.07;96349.38;5074208;28;20173;-60
2021/09/08 11:11:59;;;;;;;8.60;7.90;;;;;;;26.15;50.93;96347.81;5072014;28;20411;-61
2021/09/08 11:14:50;;;;;;;8.90;7.97;;;;;;;26.27;50.91;96345.19;5073581;28;20401;-60
2021/09/08 11:17:22;;;;;;;10.10;9.10;;;;;;;26.36;50.63;96339.78;5063331;28;20409;-60